createdAt,value
2023-08-03T00:01:56.112Z,23.13
2023-08-03T00:04:34.686Z,23.07
2023-08-03T00:07:12.184Z,23.07
2023-08-03T00:09:51.658Z,22.87
2023-08-03T00:12:21.478Z,22.99
2023-08-03T00:14:51.968Z,22.87
2023-08-03T00:17:20.077Z,22.92
2023-08-03T00:19:49.763Z,22.97
2023-08-03T00:22:23.291Z,23.04
2023-08-03T00:25:03.663Z,22.95
2023-08-03T00:27:46.581Z,22.85
2023-08-03T00:30:17.449Z,22.71
2023-08-03T00:32:49.284Z,22.80
2023-08-03T00:35:22.594Z,22.82
2023-08-03T00:38:09.980Z,22.60
2023-08-03T00:40:40.565Z,22.53
2023-08-03T00:43:17.089Z,22.66
2023-08-03T00:45:47.150Z,22.62
2023-08-03T00:48:20.405Z,22.84
2023-08-03T00:50:51.538Z,22.69
2023-08-03T00:53:23.401Z,22.69
2023-08-03T00:55:51.984Z,22.67
2023-08-03T00:58:24.321Z,22.61
2023-08-03T01:00:56.642Z,22.56
2023-08-03T01:03:33.784Z,22.68
2023-08-03T01:06:02.424Z,22.46
2023-08-03T01:08:40.791Z,22.78
2023-08-03T01:11:11.569Z,22.77
2023-08-03T01:13:49.921Z,22.66
2023-08-03T01:16:26.128Z,22.69
2023-08-03T01:18:55.647Z,22.94
2023-08-03T01:21:27.386Z,22.78
2023-08-03T01:24:03.768Z,22.59
2023-08-03T01:26:32.718Z,22.75
2023-08-03T01:29:03.273Z,22.66
2023-08-03T01:31:37.121Z,22.39
2023-08-03T01:34:12.045Z,22.54
2023-08-03T01:36:40.562Z,22.42
2023-08-03T01:39:20.365Z,22.53
2023-08-03T01:41:51.529Z,22.38
2023-08-03T01:44:27.662Z,22.50
2023-08-03T01:47:08.908Z,22.20
2023-08-03T01:49:37.137Z,22.30
2023-08-03T01:52:06.747Z,22.29
2023-08-03T01:54:38.834Z,22.30
2023-08-03T01:57:07.666Z,22.40
2023-08-03T01:59:36.200Z,22.45
2023-08-03T02:02:09.411Z,22.19
2023-08-03T02:04:40.611Z,22.28
2023-08-03T02:07:21.145Z,22.24
2023-08-03T02:10:02.730Z,22.13
2023-08-03T02:12:32.639Z,22.03
2023-08-03T02:15:06.209Z,22.20
2023-08-03T02:17:37.142Z,22.14
2023-08-03T02:20:07.310Z,22.32
2023-08-03T02:22:38.942Z,22.28
2023-08-03T02:25:16.186Z,22.30
2023-08-03T02:27:45.822Z,22.38
2023-08-03T02:30:17.898Z,22.30
2023-08-03T02:32:54.756Z,22.20
2023-08-03T02:35:29.948Z,22.17
2023-08-03T02:38:10.336Z,21.93
2023-08-03T02:40:45.604Z,21.95
2023-08-03T02:43:31.671Z,22.04
2023-08-03T02:46:01.438Z,22.11
2023-08-03T02:48:40.688Z,21.76
2023-08-03T02:51:19.282Z,22.01
2023-08-03T02:53:51.314Z,22.01
2023-08-03T02:56:22.074Z,22.10
2023-08-03T02:58:58.046Z,22.17
2023-08-03T03:01:38.069Z,21.84
2023-08-03T03:04:08.298Z,21.89
2023-08-03T03:06:43.768Z,21.96
2023-08-03T03:09:18.633Z,21.84
2023-08-03T03:12:02.695Z,21.99
2023-08-03T03:14:47.790Z,21.98
2023-08-03T03:17:31.946Z,21.86
2023-08-03T03:20:04.697Z,22.05
2023-08-03T03:22:33.100Z,22.05
2023-08-03T03:25:07.209Z,22.04
2023-08-03T03:27:38.061Z,22.17
2023-08-03T03:30:09.080Z,22.17
2023-08-03T03:32:37.908Z,22.03
2023-08-03T03:35:09.647Z,22.17
2023-08-03T03:37:38.398Z,22.27
2023-08-03T03:40:10.392Z,22.06
2023-08-03T03:42:48.900Z,22.11
2023-08-03T03:45:30.097Z,22.08
2023-08-03T03:48:04.169Z,22.34
2023-08-03T03:50:42.835Z,22.09
2023-08-03T03:53:11.615Z,22.12
2023-08-03T03:55:48.004Z,22.15
2023-08-03T03:58:26.925Z,22.12
2023-08-03T04:00:57.653Z,22.14
2023-08-03T04:03:30.001Z,21.99
2023-08-03T04:06:07.850Z,22.17
2023-08-03T04:08:37.450Z,22.11
2023-08-03T04:11:14.225Z,22.20
2023-08-03T04:13:43.737Z,22.34
2023-08-03T04:16:14.703Z,22.27
2023-08-03T04:18:46.860Z,22.21
2023-08-03T04:21:20.077Z,22.34
2023-08-03T04:23:48.681Z,22.45
2023-08-03T04:26:18.360Z,22.30
2023-08-03T04:28:48.770Z,22.45
2023-08-03T04:31:23.728Z,22.54
2023-08-03T04:33:53.587Z,22.56
2023-08-03T04:36:25.142Z,22.56
2023-08-03T04:38:55.961Z,22.57
2023-08-03T04:41:30.033Z,22.57
2023-08-03T04:44:02.273Z,22.48
2023-08-03T04:46:36.792Z,22.52
2023-08-03T04:49:11.486Z,22.43
2023-08-03T04:51:46.681Z,22.39
2023-08-03T04:54:20.550Z,22.25
2023-08-03T04:56:49.439Z,22.46
2023-08-03T04:59:21.639Z,22.37
2023-08-03T05:01:51.542Z,22.17
2023-08-03T05:04:20.535Z,22.24
2023-08-03T05:06:52.276Z,22.15
2023-08-03T05:09:24.149Z,22.43
2023-08-03T05:11:53.281Z,22.40
2023-08-03T05:14:25.432Z,22.25
2023-08-03T05:16:59.758Z,22.27
2023-08-03T05:19:28.516Z,22.34
2023-08-03T05:21:58.759Z,22.53
2023-08-03T05:24:44.692Z,22.52
2023-08-03T05:27:17.492Z,22.46
2023-08-03T05:29:59.662Z,22.42
2023-08-03T05:32:49.962Z,22.52
2023-08-03T05:35:20.160Z,22.36
2023-08-03T05:37:50.480Z,22.29
2023-08-03T05:40:22.362Z,22.53
2023-08-03T05:42:50.553Z,22.47
2023-08-03T05:45:46.019Z,22.62
2023-08-03T05:48:20.083Z,22.54
2023-08-03T05:50:52.108Z,22.39
2023-08-03T05:53:21.152Z,22.70
2023-08-03T05:56:05.456Z,22.58
2023-08-03T05:58:44.255Z,22.86
2023-08-03T06:01:22.730Z,22.80
2023-08-03T06:03:54.294Z,22.93
2023-08-03T06:06:35.207Z,23.00
2023-08-03T06:09:06.022Z,22.74
2023-08-03T06:11:34.619Z,22.78
2023-08-03T06:14:04.590Z,22.75
2023-08-03T06:16:37.062Z,22.85
2023-08-03T06:19:07.649Z,22.92
2023-08-03T06:21:45.474Z,22.82
2023-08-03T06:24:17.872Z,22.76
2023-08-03T06:26:47.483Z,22.93
2023-08-03T06:29:20.927Z,22.84
2023-08-03T06:31:59.943Z,22.80
2023-08-03T06:34:30.144Z,22.78
2023-08-03T06:37:01.746Z,22.75
2023-08-03T06:39:30.870Z,22.67
2023-08-03T06:42:18.228Z,22.80
2023-08-03T06:44:52.440Z,22.85
2023-08-03T06:47:29.031Z,23.05
2023-08-03T06:50:00.521Z,23.11
2023-08-03T06:52:35.677Z,23.12
2023-08-03T06:55:05.375Z,23.15
2023-08-03T06:57:36.134Z,22.94
2023-08-03T07:00:05.544Z,22.98
2023-08-03T07:02:44.792Z,22.94
2023-08-03T07:05:20.400Z,22.93
2023-08-03T07:07:52.208Z,22.69
2023-08-03T07:10:30.850Z,22.80
2023-08-03T07:13:00.342Z,22.88
2023-08-03T07:15:38.350Z,22.92
2023-08-03T07:18:21.101Z,22.72
2023-08-03T07:21:03.334Z,22.78
2023-08-03T07:23:33.191Z,22.69
2023-08-03T07:26:06.644Z,22.87
2023-08-03T07:28:37.328Z,22.78
2023-08-03T07:31:08.374Z,22.82
2023-08-03T07:33:45.638Z,22.71
2023-08-03T07:36:29.331Z,22.75
2023-08-03T07:38:58.752Z,22.86
2023-08-03T07:41:28.376Z,22.73
2023-08-03T07:44:03.276Z,22.65
2023-08-03T07:46:33.419Z,22.67
2023-08-03T07:49:11.317Z,22.68
2023-08-03T07:51:43.843Z,22.63
2023-08-03T07:54:20.522Z,22.51
2023-08-03T07:56:58.361Z,22.75
2023-08-03T07:59:29.491Z,22.70
2023-08-03T08:02:00.166Z,22.79
2023-08-03T08:04:35.141Z,23.03
2023-08-03T08:07:09.332Z,22.93
2023-08-03T08:09:43.497Z,22.86
2023-08-03T08:12:12.707Z,22.90
2023-08-03T08:14:54.729Z,22.95
2023-08-03T08:17:26.594Z,22.76
2023-08-03T08:20:18.154Z,22.83
2023-08-03T08:22:47.014Z,22.96
2023-08-03T08:25:19.005Z,22.92
2023-08-03T08:27:48.819Z,22.94
2023-08-03T08:30:20.565Z,22.89
2023-08-03T08:32:52.606Z,22.87
2023-08-03T08:35:29.603Z,23.10
2023-08-03T08:38:01.515Z,22.91
2023-08-03T08:40:29.777Z,22.91
2023-08-03T08:43:07.811Z,22.98
2023-08-03T08:45:43.932Z,23.00
2023-08-03T08:54:17.958Z,22.99
2023-08-03T09:01:54.023Z,22.96
2023-08-03T09:04:38.932Z,22.89
2023-08-03T09:07:26.712Z,22.81
2023-08-03T09:10:06.521Z,22.81
2023-08-03T09:12:35.752Z,22.53
2023-08-03T09:15:11.948Z,22.82
2023-08-03T09:17:43.717Z,22.66
2023-08-03T09:25:41.916Z,22.35
2023-08-03T09:33:36.565Z,22.34
2023-08-03T09:44:25.946Z,22.60
2023-08-03T09:47:06.483Z,22.67
2023-08-03T09:49:36.129Z,22.74
2023-08-03T09:52:14.075Z,22.51
2023-08-03T09:57:37.475Z,22.59
2023-08-03T10:00:14.890Z,22.27
2023-08-03T10:02:54.173Z,22.38
2023-08-03T10:05:30.466Z,22.50
2023-08-03T10:08:08.143Z,22.29
2023-08-03T10:11:01.321Z,22.58
2023-08-03T10:13:38.380Z,22.57
2023-08-03T10:16:07.629Z,22.74
2023-08-03T10:18:58.325Z,22.82
2023-08-03T10:21:29.650Z,22.74
2023-08-03T10:24:16.455Z,22.73
2023-08-03T10:26:52.491Z,22.82
2023-08-03T10:29:55.922Z,22.72
2023-08-03T10:32:26.582Z,22.71
2023-08-03T10:34:59.532Z,22.84
2023-08-03T10:37:30.796Z,22.86
2023-08-03T10:40:02.049Z,22.92
2023-08-03T10:42:38.617Z,22.80
2023-08-03T10:45:34.064Z,22.69
2023-08-03T10:48:38.693Z,22.57
2023-08-03T10:51:10.840Z,22.69
2023-08-03T10:53:42.193Z,22.83
2023-08-03T10:56:15.554Z,22.79
2023-08-03T10:58:59.147Z,22.65
2023-08-03T11:01:29.659Z,22.56
2023-08-03T11:04:02.427Z,22.51
2023-08-03T11:06:42.061Z,22.45
2023-08-03T11:09:14.123Z,22.55
2023-08-03T11:11:47.517Z,22.46
2023-08-03T11:14:21.081Z,22.52
2023-08-03T11:16:50.617Z,22.36
2023-08-03T11:19:21.717Z,22.39
2023-08-03T11:21:51.447Z,22.46
2023-08-03T11:24:22.204Z,22.43
2023-08-03T11:27:00.521Z,22.57
2023-08-03T11:29:35.842Z,22.36
2023-08-03T11:32:06.499Z,22.48
2023-08-03T11:34:35.157Z,22.36
2023-08-03T11:37:06.752Z,22.32
2023-08-03T11:39:35.854Z,22.39
2023-08-03T11:42:06.634Z,22.46
2023-08-03T11:44:55.112Z,22.48
2023-08-03T11:47:27.650Z,22.53
2023-08-03T11:50:01.619Z,22.27
2023-08-03T11:52:32.357Z,22.22
2023-08-03T11:55:07.306Z,22.35
2023-08-03T11:57:55.172Z,22.58
2023-08-03T12:00:29.769Z,22.43
2023-08-03T12:03:04.258Z,22.68
2023-08-03T12:05:52.579Z,22.75
2023-08-03T12:08:32.885Z,22.41
2023-08-03T12:11:07.285Z,22.38
2023-08-03T12:16:34.390Z,22.54
2023-08-03T12:19:09.559Z,22.79
2023-08-03T12:21:39.445Z,22.54
2023-08-03T12:24:10.983Z,22.50
2023-08-03T12:26:42.952Z,22.54
2023-08-03T12:29:12.197Z,22.59
2023-08-03T12:31:45.037Z,22.42
2023-08-03T12:34:19.188Z,22.57
2023-08-03T12:36:49.430Z,22.46
2023-08-03T12:39:26.995Z,22.61
2023-08-03T12:42:07.734Z,22.57
2023-08-03T12:44:39.608Z,22.58
2023-08-03T12:47:11.895Z,22.75
2023-08-03T12:49:50.106Z,22.51
2023-08-03T12:52:18.516Z,22.35
2023-08-03T12:54:59.263Z,22.63
2023-08-03T12:57:35.631Z,22.56
2023-08-03T13:00:08.619Z,22.76
2023-08-03T13:02:42.111Z,22.70
2023-08-03T13:05:13.581Z,22.57
2023-08-03T13:07:54.920Z,22.49
2023-08-03T13:10:23.440Z,22.50
2023-08-03T13:12:59.562Z,22.41
2023-08-03T13:15:38.628Z,22.55
2023-08-03T13:18:23.738Z,22.27
2023-08-03T13:21:02.500Z,22.39
2023-08-03T13:23:31.976Z,22.10
2023-08-03T13:26:11.100Z,22.46
2023-08-03T13:28:40.396Z,22.33
2023-08-03T13:31:11.087Z,22.16
2023-08-03T13:33:44.971Z,22.47
2023-08-03T13:36:15.232Z,22.53
2023-08-03T13:38:47.023Z,22.42
2023-08-03T13:41:16.408Z,22.35
2023-08-03T13:43:55.616Z,22.54
2023-08-03T13:46:31.905Z,22.45
2023-08-03T13:49:15.353Z,22.49
2023-08-03T13:51:51.764Z,22.56
2023-08-03T13:54:28.447Z,22.59
2023-08-03T13:57:02.060Z,22.10
2023-08-03T13:59:41.549Z,22.37
2023-08-03T14:02:14.906Z,22.64
2023-08-03T14:05:01.567Z,22.41
2023-08-03T14:23:21.280Z,22.77
2023-08-03T14:25:56.274Z,22.86
2023-08-03T14:31:02.272Z,22.97
2023-08-03T14:33:31.361Z,22.98
2023-08-03T14:36:17.318Z,22.99
2023-08-03T14:38:48.640Z,22.83
2023-08-03T14:41:26.940Z,22.86
2023-08-03T14:44:06.569Z,22.79
2023-08-03T14:46:38.131Z,22.51
2023-08-03T14:49:11.154Z,22.71
2023-08-03T14:54:17.104Z,22.76
2023-08-03T14:56:48.573Z,22.89
2023-08-03T15:02:09.461Z,22.55
2023-08-03T15:04:44.855Z,22.69
2023-08-03T15:07:25.827Z,22.69
2023-08-03T15:10:01.860Z,22.59
2023-08-03T15:12:32.777Z,22.53
2023-08-03T15:17:38.835Z,22.36
2023-08-03T15:20:23.703Z,22.51
2023-08-03T15:23:13.064Z,22.51
2023-08-03T15:25:41.835Z,22.43
2023-08-03T15:28:33.360Z,22.72
2023-08-03T15:31:17.172Z,22.36
2023-08-03T15:33:51.107Z,22.65
2023-08-03T15:36:43.644Z,22.35
2023-08-03T15:39:32.529Z,22.24
2023-08-03T15:42:06.442Z,22.38
2023-08-03T15:44:45.102Z,22.49
2023-08-03T15:47:43.291Z,22.45
2023-08-03T15:50:12.262Z,22.59
2023-08-03T15:53:13.778Z,22.47
2023-08-03T15:58:29.346Z,22.21
2023-08-03T16:01:17.631Z,22.29
2023-08-03T16:04:04.542Z,22.36
2023-08-03T16:06:42.377Z,22.29
2023-08-03T16:09:20.289Z,22.06
2023-08-03T16:11:56.838Z,22.28
2023-08-03T16:14:29.127Z,22.11
2023-08-03T16:17:10.276Z,22.12
2023-08-03T16:19:54.119Z,22.03
2023-08-03T16:22:24.847Z,22.00
2023-08-03T16:25:08.039Z,22.05
2023-08-03T16:27:51.336Z,22.07
2023-08-03T16:30:23.522Z,22.09
2023-08-03T16:32:57.083Z,22.04
2023-08-03T16:35:32.944Z,21.97
2023-08-03T16:38:06.941Z,21.91
2023-08-03T16:40:42.210Z,22.05
2023-08-03T16:43:19.593Z,21.89
2023-08-03T16:46:00.403Z,21.92
2023-08-03T16:48:54.063Z,21.78
2023-08-03T16:51:29.448Z,21.72
2023-08-03T16:54:02.599Z,21.73
2023-08-03T16:56:33.635Z,21.75
2023-08-03T16:59:09.945Z,21.77
2023-08-03T17:01:47.021Z,21.97
2023-08-03T17:04:18.076Z,21.59
2023-08-03T17:06:50.864Z,21.59
2023-08-03T17:09:27.497Z,21.62
2023-08-03T17:12:09.981Z,21.70
2023-08-03T17:14:56.632Z,21.43
2023-08-03T17:17:37.329Z,21.65
2023-08-03T17:20:19.190Z,21.80
2023-08-03T17:23:00.737Z,21.69
2023-08-03T17:25:40.447Z,21.63
2023-08-03T17:28:23.775Z,21.73
2023-08-03T17:31:02.602Z,21.68
2023-08-03T17:33:34.955Z,21.72
2023-08-03T17:36:15.688Z,21.92
2023-08-03T17:38:52.212Z,21.65
2023-08-03T17:41:36.351Z,21.64
2023-08-03T17:44:11.383Z,21.73
2023-08-03T17:46:49.421Z,21.70
2023-08-03T17:49:25.200Z,21.59
2023-08-03T17:51:59.505Z,21.68
2023-08-03T17:54:31.766Z,21.65
2023-08-03T17:57:06.000Z,21.63
2023-08-03T17:59:40.276Z,21.57
2023-08-03T18:02:38.769Z,21.52
2023-08-03T18:05:19.458Z,21.57
2023-08-03T18:07:57.933Z,21.64
2023-08-03T18:10:32.862Z,21.75
2023-08-03T18:13:11.462Z,21.64
2023-08-03T18:15:47.147Z,21.60
2023-08-03T18:18:23.686Z,21.72
2023-08-03T18:21:04.213Z,21.85
2023-08-03T18:23:40.883Z,21.67
2023-08-03T18:26:20.672Z,21.67
2023-08-03T18:28:52.295Z,21.72
2023-08-03T18:31:25.888Z,21.67
2023-08-03T18:34:11.004Z,21.75
2023-08-03T18:36:57.183Z,21.67
2023-08-03T18:39:33.667Z,21.58
2023-08-03T18:42:31.425Z,21.61
2023-08-03T18:45:06.664Z,21.72
2023-08-03T18:47:45.090Z,21.81
2023-08-03T18:50:30.002Z,21.52
2023-08-03T18:53:03.885Z,21.64
2023-08-03T18:55:41.398Z,21.51
2023-08-03T18:58:15.669Z,21.65
2023-08-03T19:00:49.381Z,21.73
2023-08-03T19:03:22.446Z,21.47
2023-08-03T19:06:07.517Z,21.53
2023-08-03T19:08:49.442Z,21.65
2023-08-03T19:11:40.428Z,21.67
2023-08-03T19:14:20.818Z,21.82
2023-08-03T19:16:56.181Z,21.79
2023-08-03T19:19:34.126Z,21.85
2023-08-03T19:22:20.680Z,21.70
2023-08-03T19:25:04.253Z,21.73
2023-08-03T19:27:39.967Z,21.78
2023-08-03T19:30:14.410Z,21.82
2023-08-03T19:32:54.081Z,21.75
2023-08-03T19:35:30.454Z,21.83
2023-08-03T19:38:20.337Z,21.72
2023-08-03T19:40:56.740Z,21.67
2023-08-03T19:43:38.666Z,21.56
2023-08-03T19:46:23.513Z,21.72
2023-08-03T19:48:58.641Z,21.85
2023-08-03T19:57:03.042Z,21.76
2023-08-03T20:00:50.676Z,21.65
2023-08-03T20:10:56.385Z,21.55
2023-08-03T20:19:24.510Z,21.54
2023-08-03T20:22:07.738Z,21.64
2023-08-03T20:24:48.380Z,21.54
2023-08-03T20:27:28.514Z,21.67
2023-08-03T20:30:13.045Z,21.65
2023-08-03T20:32:49.159Z,21.66
2023-08-03T20:38:09.046Z,21.61
2023-08-03T20:40:48.908Z,21.52
2023-08-03T20:45:55.594Z,21.41
2023-08-03T20:51:06.552Z,21.67
2023-08-03T20:53:37.793Z,21.68
2023-08-03T20:56:11.102Z,21.66
2023-08-03T20:58:46.677Z,21.61
2023-08-03T21:01:20.679Z,21.42
2023-08-03T21:03:48.928Z,21.50
2023-08-03T21:06:21.560Z,21.50
2023-08-03T21:08:53.456Z,21.49
2023-08-03T21:11:24.332Z,21.40
2023-08-03T21:13:57.448Z,21.49
2023-08-03T21:16:28.285Z,21.45
2023-08-03T21:21:36.494Z,21.43
2023-08-03T21:24:09.778Z,21.57
2023-08-03T21:26:46.549Z,21.44
2023-08-03T21:29:21.964Z,21.31
2023-08-03T21:31:53.065Z,21.28
2023-08-03T21:34:24.958Z,21.18
2023-08-03T21:36:53.928Z,21.32
2023-08-03T21:39:24.438Z,21.30
2023-08-03T21:41:52.900Z,21.61
2023-08-03T21:44:25.499Z,21.31
2023-08-03T21:46:55.159Z,21.26
2023-08-03T21:49:31.575Z,21.16
2023-08-03T21:52:05.121Z,21.11
2023-08-03T21:54:36.976Z,20.67
2023-08-03T21:57:08.660Z,21.01
2023-08-03T21:59:44.935Z,20.78
2023-08-03T22:02:16.245Z,20.95
2023-08-03T22:04:45.879Z,20.86
2023-08-03T22:07:19.285Z,20.90
2023-08-03T22:09:56.285Z,20.98
2023-08-03T22:12:29.617Z,20.98
2023-08-03T22:15:13.994Z,20.92
2023-08-03T22:17:50.382Z,21.05
2023-08-03T22:20:23.297Z,20.81
2023-08-03T22:22:52.122Z,20.82
2023-08-03T22:25:21.691Z,20.90
2023-08-03T22:27:55.811Z,21.00
2023-08-03T22:30:40.678Z,20.85
2023-08-03T22:33:12.021Z,20.98
2023-08-03T22:35:46.276Z,20.84
2023-08-03T22:38:15.186Z,20.75
2023-08-03T22:40:49.187Z,20.81
2023-08-03T22:43:23.739Z,20.93
2023-08-03T22:45:55.764Z,20.94
2023-08-03T22:48:24.598Z,20.79
2023-08-03T22:50:57.937Z,20.90
2023-08-03T22:53:28.382Z,20.90
2023-08-03T22:56:07.105Z,20.93
2023-08-03T22:58:41.522Z,20.88
2023-08-03T23:01:24.854Z,20.71
2023-08-03T23:03:54.728Z,20.80
2023-08-03T23:06:25.537Z,20.91
2023-08-03T23:08:57.991Z,20.75
2023-08-03T23:11:33.835Z,20.72
2023-08-03T23:14:05.584Z,20.62
2023-08-03T23:16:45.253Z,20.59
2023-08-03T23:19:16.131Z,20.52
2023-08-03T23:21:47.659Z,20.52
2023-08-03T23:24:17.362Z,20.64
2023-08-03T23:26:57.404Z,20.49
2023-08-03T23:29:29.086Z,20.38
2023-08-03T23:32:04.555Z,20.31
2023-08-03T23:34:37.652Z,20.17
2023-08-03T23:37:07.375Z,20.25
2023-08-03T23:39:37.078Z,19.90
2023-08-03T23:42:11.063Z,19.83
2023-08-03T23:44:40.773Z,19.94
2023-08-03T23:47:20.771Z,20.24
2023-08-03T23:49:58.636Z,20.11
2023-08-03T23:52:29.375Z,20.04
2023-08-03T23:55:01.358Z,20.19
2023-08-03T23:57:35.341Z,19.90
